Table of current weather in Finland weather stations (FMI)

Data updated at Finland time 20.06.2019 19:15   Click the links in "Station" for forecasts

Station
 
Station name
 
 Loc 
 
Observed
 
Temp.
°C
Wind
m/s
From
 
Windchill
°C
Gusts
m/s
Humidity
%
Air pressure
hPa
Clouds
 
Conditions
 
Precip.
mm/1h
Snow
cm
100968 Helsinki-Vantaa Map 20.06 19:00 24.8 7.1 SE 24.8 9.5 43.0 1009.8 clear sky (0/8) 0.0
100971 Helsinki/Kaisaniemi Map 20.06 19:00 21.9 4.8 E 21.9 7.1 51.0 1010.1 light clouds (3/8) 0.0
874863 Espoo/Tapiola Map 20.06 19:00 22.8 5.3 E 22.8 8.8 45.0 1010.1 cloudy (7/8) 0.0
852678 Espoo/Nuuksio Map 20.06 19:00 23.5 4.7 E 23.5 8.8 47.0 1009.7 clear sky (0/8) 0.0
151029 Mariehamn Map 20.06 19:00 19.2 3.2 S 19.2 5.1 79.0 1006.7
100908 Utö Map 20.06 19:00 17.8 5.4 SE 17.3 6.6 80.0 1007.8 clear sky (0/8) 0.0
100949 Turku/Artukainen Map 20.06 19:00 26.4 4.7 S 26.4 9.3 45.0 1007.6 mostly clear (1/8) 0.0
101247 Lappeenranta/Lepola Map 20.06 19:00 25.4 2.0 S 25.4 4.4 28.0 1011.0 clear sky (0/8) 0.0
101254 Parikkala Map 20.06 19:00 23.6 2.9 SE 23.6 4.4 58.0 1011.6 0.0
101124 Tampere/Härmälä Map 20.06 19:00 25.1 43.0 1008.1 cloudy (7/8) 0.0
101339 Jyväskylä/Airport Map 20.06 19:00 24.8 2.4 SE 24.8 5.1 42.0 1009.1 light clouds (3/8) 0.0
101632 Joensuu/Linnunlahti Map 20.06 19:00 23.0 47.0 1011.7 clear sky (0/8) 0.0
101586 Kuopio/Savilahti Map 20.06 19:00 23.9 2.2 SE 23.9 4.6 45.0 1010.2 partly cloudy (5/8) 0.0
101485 Vaasa/Kemettilä Map 20.06 19:00 24.2 2.9 SE 24.2 4.6 48.0 1006.8 cloudy (7/8) 0.0
126736 Kajaani/Petäisenniska Map 20.06 19:00 19.7 1.3 E 19.7 2.8 50.0 1011.0 cloudy (7/8) Rain showers, slight 0.0
101773 Kuhmo/Kalliojoki Map 20.06 19:00 22.3 1.2 W 22.3 2.4 40.0 1011.3 clear sky (0/8) 0.0
101799 Oulu/Oulunsalo Map 20.06 19:00 17.6 1.1 SE 17.6 2.0 81.0 1010.4 cloudy (7/8) Rain 0.0
101899 Kuusamo/Kiutaköngäs Map 20.06 19:00 15.2 2.4 NE 15.0 3.5 68.0
101920 Rovaniemi/Airport Map 20.06 19:00 17.3 58.0 Precipitation Precipitation 0.0
101966 Salla/Naruska Map 20.06 19:00 15.8 calm 0.0 60.0 1012.3 0.0
101994 Kittilä/Pokka Map 20.06 19:00 15.2 0.9 SE 15.2 2.6 57.0 cloudy (7/8) 0.0
102019 Enontekiö/Näkkälä Map 20.06 19:00 14.9 1.2 E 14.9 2.9 48.0 1011.0 mostly clear (1/8) 0.0
102052 Ivalo Map 20.06 19:00 14.7 2.0 NW 14.7 3.6 51.0 1012.7 clear sky (0/8) 0.0
102016 Enontekiö/Kilpisjärvi Map 20.06 19:00 14.6 2.5 SE 14.3 4.1 48.0 1009.9 partly cloudy (5/8) 0.0
102035 Utsjoki/Kevo Map 20.06 19:00 15.0 3.9 14.2 6.3 38.0 1013.2 clear sky (0/8) 0.0